Time;durP1;ratioP1;P1;durP2;ratioP2;P2;SDS_P1;SDS_P2;PMS_P1;PMS_P2;Temp;Humidity;BMP_temperature;BMP_pressure;BME280_temperature;BME280_humidity;BME280_pressure;Samples;Min_cycle;Max_cycle;Signal;HPM_P1;HPM_P2
2021/06/27 00:00:37;;;;;;;20.13;12.57;;;18.80;91.60;;;;;;5053778;28;20507;-78
2021/06/27 00:03:04;;;;;;;22.50;12.93;;;18.40;92.50;;;;;;5054088;28;20195;-77
2021/06/27 00:05:31;;;;;;;19.97;12.77;;;18.40;92.80;;;;;;5061032;28;20488;-79
2021/06/27 00:07:58;;;;;;;18.77;11.70;;;18.40;93.00;;;;;;5034612;28;20468;-78
2021/06/27 00:10:27;;;;;;;18.13;12.00;;;18.40;92.90;;;;;;5052458;28;20522;-78
2021/06/27 00:12:54;;;;;;;18.47;11.00;;;18.30;93.10;;;;;;5053147;28;20430;-77
2021/06/27 00:15:28;;;;;;;17.53;10.00;;;18.40;93.10;;;;;;5052612;28;20481;-77
2021/06/27 00:17:55;;;;;;;15.73;10.60;;;18.40;92.90;;;;;;5053134;28;20931;-77
2021/06/27 00:20:24;;;;;;;15.70;9.37;;;18.40;92.50;;;;;;5053175;28;20434;-77
2021/06/27 00:22:51;;;;;;;14.80;9.60;;;18.40;92.30;;;;;;5053333;28;20422;-78
2021/06/27 00:25:19;;;;;;;16.07;9.00;;;18.30;92.20;;;;;;5052876;28;20466;-78
2021/06/27 00:27:48;;;;;;;12.27;8.30;;;18.30;92.10;;;;;;5052943;28;20472;-76
2021/06/27 00:30:17;;;;;;;15.43;9.87;;;18.30;92.10;;;;;;5068867;28;20438;-78
2021/06/27 00:32:43;;;;;;;18.43;10.93;;;18.30;92.10;;;;;;5052556;28;20435;-77
2021/06/27 00:35:11;;;;;;;16.03;9.77;;;18.30;92.20;;;;;;5053116;28;20424;-77
2021/06/27 00:37:37;;;;;;;16.27;9.60;;;18.40;92.10;;;;;;5053157;28;20455;-77
2021/06/27 00:40:10;;;;;;;16.60;9.53;;;18.30;92.30;;;;;;5054175;28;20942;-79
2021/06/27 00:42:36;;;;;;;19.27;11.30;;;18.20;92.50;;;;;;5054282;28;20436;-77
2021/06/27 00:45:05;;;;;;;16.83;10.43;;;18.20;92.70;;;;;;5056207;28;20420;-79
2021/06/27 00:47:33;;;;;;;18.17;10.47;;;18.10;92.80;;;;;;5069923;28;20223;-77
2021/06/27 00:49:59;;;;;;;18.87;12.30;;;18.10;92.90;;;;;;5051819;28;20436;-78
2021/06/27 00:52:25;;;;;;;19.93;12.07;;;18.10;93.10;;;;;;5050714;28;20423;-76
2021/06/27 00:54:52;;;;;;;17.53;10.73;;;18.10;93.20;;;;;;5049853;28;20430;-77
2021/06/27 00:57:17;;;;;;;14.13;9.50;;;18.10;93.10;;;;;;5051445;28;20472;-77
2021/06/27 00:59:43;;;;;;;17.70;10.07;;;18.10;92.80;;;;;;5051307;28;20914;-77
2021/06/27 01:02:09;;;;;;;16.77;10.63;;;18.10;92.80;;;;;;5051086;28;20189;-76
2021/06/27 01:04:37;;;;;;;15.77;9.67;;;18.10;92.60;;;;;;5051275;28;20191;-75
2021/06/27 01:07:04;;;;;;;16.10;9.60;;;18.10;92.50;;;;;;5049532;28;20454;-77
2021/06/27 01:09:30;;;;;;;16.00;10.73;;;18.00;92.70;;;;;;5066645;28;20921;-76
2021/06/27 01:12:00;;;;;;;15.77;10.20;;;18.00;92.80;;;;;;5047069;28;20419;-77
2021/06/27 01:14:27;;;;;;;33.43;17.60;;;17.90;93.20;;;;;;5051881;28;20424;-77
2021/06/27 01:16:53;;;;;;;24.10;14.33;;;18.00;93.20;;;;;;5051003;28;20446;-76
2021/06/27 01:19:19;;;;;;;20.00;12.07;;;18.00;93.10;;;;;;5049179;28;20910;-78
2021/06/27 01:21:51;;;;;;;22.27;12.97;;;18.00;93.10;;;;;;5049413;28;20429;-76
2021/06/27 01:24:17;;;;;;;24.13;13.03;;;17.90;93.00;;;;;;5045475;28;20471;-77
2021/06/27 01:26:43;;;;;;;21.93;12.33;;;18.00;93.10;;;;;;5051373;28;20465;-77
2021/06/27 01:29:09;;;;;;;19.47;11.60;;;18.00;93.10;;;;;;5051790;28;20513;-78
2021/06/27 01:31:35;;;;;;;18.60;12.03;;;17.90;93.00;;;;;;5051058;28;20188;-77
2021/06/27 01:34:02;;;;;;;13.90;8.87;;;17.90;93.10;;;;;;5049824;28;20308;-76
2021/06/27 01:36:28;;;;;;;18.93;12.40;;;17.80;92.70;;;;;;5053547;28;20443;-77
2021/06/27 01:38:54;;;;;;;20.70;11.30;;;17.80;93.10;;;;;;5054116;28;20480;-76
2021/06/27 01:41:19;;;;;;;15.87;9.03;;;17.80;93.50;;;;;;5054751;28;20192;-76
2021/06/27 01:43:45;;;;;;;15.70;9.53;;;17.80;93.30;;;;;;5055121;28;20214;-77
2021/06/27 01:46:11;;;;;;;11.87;8.10;;;17.80;93.00;;;;;;5058664;28;20665;-77
2021/06/27 01:48:37;;;;;;;13.17;8.57;;;17.80;92.90;;;;;;5057518;28;20273;-79
2021/06/27 01:51:06;;;;;;;13.70;8.77;;;17.90;92.50;;;;;;5054867;28;20447;-77
2021/06/27 01:53:35;;;;;;;13.13;8.40;;;17.90;92.20;;;;;;5054398;28;20509;-78
2021/06/27 01:56:05;;;;;;;15.23;8.40;;;18.00;91.70;;;;;;5055813;28;20504;-77
2021/06/27 01:58:47;;;;;;;17.37;10.10;;;17.90;91.10;;;;;;5056854;28;20430;-76
2021/06/27 02:01:20;;;;;;;18.43;10.90;;;17.90;92.00;;;;;;5054756;28;20435;-77
2021/06/27 02:03:48;;;;;;;20.13;11.63;;;17.80;92.80;;;;;;5056427;28;20472;-77
2021/06/27 02:06:15;;;;;;;19.63;11.80;;;17.60;93.40;;;;;;5056459;28;20446;-76
2021/06/27 02:08:43;;;;;;;21.53;12.33;;;17.40;93.80;;;;;;5056923;28;20467;-77
2021/06/27 02:11:10;;;;;;;16.93;11.77;;;17.40;94.30;;;;;;5063192;28;20440;-77
2021/06/27 02:13:37;;;;;;;19.90;11.60;;;17.20;94.60;;;;;;5090934;28;20437;-78
2021/06/27 02:16:04;;;;;;;16.17;9.90;;;17.20;94.80;;;;;;5070803;28;20450;-77
2021/06/27 02:18:33;;;;;;;20.33;12.20;;;17.20;94.90;;;;;;5038357;28;20415;-77
2021/06/27 02:21:07;;;;;;;17.80;11.17;;;17.20;95.00;;;;;;5047114;28;20429;-77
2021/06/27 02:23:34;;;;;;;19.00;11.17;;;17.30;94.90;;;;;;5058183;28;20404;-77
2021/06/27 02:26:00;;;;;;;14.40;9.07;;;17.40;94.80;;;;;;5067976;28;20394;-76
2021/06/27 02:28:26;;;;;;;15.57;8.57;;;17.50;94.00;;;;;;5075324;28;20481;-76
2021/06/27 02:30:53;;;;;;;14.37;9.83;;;17.50;93.20;;;;;;5074195;28;20430;-77
2021/06/27 02:33:20;;;;;;;16.17;10.23;;;17.60;93.20;;;;;;5076180;28;20457;-77
2021/06/27 02:35:46;;;;;;;17.30;9.80;;;17.60;93.20;;;;;;5077001;28;20492;-77
2021/06/27 02:38:12;;;;;;;13.43;8.23;;;17.60;93.10;;;;;;5071877;28;20439;-77
2021/06/27 02:40:38;;;;;;;12.33;7.33;;;17.60;92.80;;;;;;5065598;28;20446;-77
2021/06/27 02:43:05;;;;;;;10.53;7.03;;;17.50;92.40;;;;;;5056908;28;20514;-77
2021/06/27 02:45:31;;;;;;;12.27;7.07;;;17.50;92.30;;;;;;5055934;28;20430;-76
2021/06/27 02:47:57;;;;;;;9.43;6.20;;;17.50;91.80;;;;;;5048583;28;20458;-77
2021/06/27 02:50:23;;;;;;;9.43;6.23;;;17.50;91.30;;;;;;5054861;28;20829;-76
2021/06/27 02:52:49;;;;;;;12.80;8.90;;;17.50;91.10;;;;;;5054728;28;20414;-77
2021/06/27 02:55:15;;;;;;;13.27;8.80;;;17.50;91.20;;;;;;5055897;28;20461;-77
2021/06/27 02:57:41;;;;;;;10.53;6.77;;;17.50;91.50;;;;;;5054955;28;20215;-77
2021/06/27 03:00:13;;;;;;;9.23;6.20;;;17.50;91.80;;;;;;5054934;28;20181;-77
2021/06/27 03:02:39;;;;;;;9.57;6.70;;;17.50;91.50;;;;;;5055055;28;20411;-76
2021/06/27 03:05:06;;;;;;;12.07;7.20;;;17.50;91.40;;;;;;5055078;28;20426;-78
2021/06/27 03:07:31;;;;;;;10.33;6.60;;;17.60;91.10;;;;;;5055069;28;20992;-77
2021/06/27 03:09:57;;;;;;;10.00;6.17;;;17.60;90.90;;;;;;5045674;28;20453;-77
2021/06/27 03:12:23;;;;;;;12.77;8.70;;;17.60;90.50;;;;;;5056778;28;20192;-76
2021/06/27 03:14:48;;;;;;;13.97;8.40;;;17.60;91.10;;;;;;5054022;28;20714;-76
2021/06/27 03:17:14;;;;;;;9.30;6.30;;;17.60;91.50;;;;;;5076913;28;20204;-77
2021/06/27 03:19:40;;;;;;;8.73;6.10;;;17.60;91.20;;;;;;5056480;28;20188;-77
2021/06/27 03:22:06;;;;;;;10.50;6.33;;;17.60;90.90;;;;;;5054386;28;20196;-77
2021/06/27 03:24:32;;;;;;;9.33;6.40;;;17.60;90.70;;;;;;5053770;28;20759;-76
2021/06/27 03:26:57;;;;;;;11.70;6.60;;;17.60;90.60;;;;;;5053823;28;20454;-76
2021/06/27 03:29:23;;;;;;;10.47;7.50;;;17.60;90.50;;;;;;5055211;28;20202;-77
2021/06/27 03:31:49;;;;;;;9.20;6.40;;;17.70;90.70;;;;;;5055164;28;20209;-77
2021/06/27 03:34:15;;;;;;;9.80;6.17;;;17.70;90.30;;;;;;5070842;28;20197;-77
2021/06/27 03:36:41;;;;;;;8.17;6.00;;;17.70;90.10;;;;;;5054921;28;20469;-77
2021/06/27 03:39:11;;;;;;;12.97;8.70;;;17.80;89.70;;;;;;5064418;28;20195;-77
2021/06/27 03:41:46;;;;;;;11.00;7.00;;;17.80;90.70;;;;;;5066505;28;20198;-78
2021/06/27 03:44:12;;;;;;;11.50;6.03;;;17.70;90.80;;;;;;5063914;28;20422;-77
2021/06/27 03:46:38;;;;;;;7.90;5.77;;;17.70;90.30;;;;;;5056906;28;20478;-78
2021/06/27 03:49:04;;;;;;;9.53;6.40;;;17.70;90.20;;;;;;5056706;28;20670;-75
2021/06/27 03:51:31;;;;;;;10.20;6.60;;;17.70;90.20;;;;;;5060172;28;20415;-76
2021/06/27 03:53:57;;;;;;;9.83;7.50;;;17.70;90.30;;;;;;5061042;28;20778;-77
2021/06/27 03:56:22;;;;;;;15.13;10.30;;;17.80;90.50;;;;;;5052907;28;20960;-75
2021/06/27 03:58:48;;;;;;;14.60;9.57;;;17.80;91.20;;;;;;5051758;28;20663;-76
2021/06/27 04:01:15;;;;;;;12.53;8.57;;;17.80;91.40;;;;;;5051818;28;20415;-75
2021/06/27 04:03:41;;;;;;;16.67;11.27;;;17.60;91.80;;;;;;5044666;28;20424;-77
2021/06/27 04:06:07;;;;;;;15.00;9.97;;;17.60;92.30;;;;;;5053093;28;20541;-75
2021/06/27 04:08:33;;;;;;;20.23;11.50;;;17.50;92.50;;;;;;5052713;28;20208;-75
2021/06/27 04:10:59;;;;;;;15.87;9.90;;;17.50;92.80;;;;;;5050802;28;20207;-76
2021/06/27 04:13:27;;;;;;;16.87;10.70;;;17.50;92.90;;;;;;5050520;28;20426;-76
2021/06/27 04:15:53;;;;;;;13.70;9.80;;;17.40;93.10;;;;;;5051174;28;20790;-76
2021/06/27 04:18:19;;;;;;;18.53;11.50;;;17.30;93.60;;;;;;5049576;28;20434;-76
2021/06/27 04:20:45;;;;;;;16.63;9.83;;;17.30;93.80;;;;;;5051952;28;20188;-76
2021/06/27 04:23:12;;;;;;;17.83;10.90;;;17.20;93.70;;;;;;5053479;28;20433;-76
2021/06/27 04:25:37;;;;;;;17.57;10.70;;;17.20;93.70;;;;;;5052898;28;20505;-77
2021/06/27 04:28:04;;;;;;;16.87;10.70;;;17.30;93.70;;;;;;5053494;28;20565;-77
2021/06/27 04:30:30;;;;;;;15.63;10.13;;;17.30;93.60;;;;;;5070328;28;20191;-78
2021/06/27 04:32:56;;;;;;;17.83;10.40;;;17.40;93.20;;;;;;5059381;28;20418;-76
2021/06/27 04:35:22;;;;;;;16.00;10.13;;;17.50;92.40;;;;;;5068346;28;20668;-76
2021/06/27 04:37:47;;;;;;;14.30;9.90;;;17.60;92.40;;;;;;5077568;28;20211;-77
2021/06/27 04:40:13;;;;;;;15.03;9.63;;;17.70;92.30;;;;;;5063689;28;20669;-77
2021/06/27 04:42:39;;;;;;;14.87;9.53;;;17.90;91.60;;;;;;5053398;28;20309;-78
2021/06/27 04:45:06;;;;;;;17.00;10.33;;;17.90;91.20;;;;;;5053221;28;20553;-78
2021/06/27 04:47:32;;;;;;;19.77;11.10;;;17.90;90.90;;;;;;5051624;28;20240;-77
2021/06/27 04:49:58;;;;;;;15.63;9.60;;;17.90;91.10;;;;;;5053078;28;20415;-80
2021/06/27 04:52:24;;;;;;;11.33;8.47;;;18.00;91.00;;;;;;5052360;28;20976;-77
2021/06/27 04:54:50;;;;;;;14.40;9.60;;;18.00;91.00;;;;;;5051485;28;20191;-77
2021/06/27 04:57:16;;;;;;;18.60;10.30;;;18.00;90.90;;;;;;5061008;28;20204;-76
2021/06/27 04:59:41;;;;;;;12.13;8.40;;;18.10;90.80;;;;;;5052417;28;20184;-77
2021/06/27 05:02:07;;;;;;;14.53;9.87;;;18.20;90.50;;;;;;5051529;28;20448;-78
2021/06/27 05:04:33;;;;;;;13.07;8.80;;;18.30;90.40;;;;;;5051976;28;20200;-77
2021/06/27 05:06:58;;;;;;;17.40;9.93;;;18.40;90.00;;;;;;5052384;28;20212;-76
2021/06/27 05:09:24;;;;;;;13.30;9.27;;;18.50;89.20;;;;;;5052022;28;20674;-76
2021/06/27 05:11:50;;;;;;;15.80;10.27;;;18.50;89.00;;;;;;5052015;28;20192;-77
2021/06/27 05:14:15;;;;;;;18.53;10.00;;;18.50;89.20;;;;;;5052608;28;20528;-76
2021/06/27 05:16:41;;;;;;;13.40;8.93;;;18.50;88.40;;;;;;5052356;28;20201;-77
2021/06/27 05:19:07;;;;;;;15.20;9.47;;;18.60;88.70;;;;;;5051114;28;20640;-76
2021/06/27 05:21:33;;;;;;;15.00;9.00;;;18.70;88.70;;;;;;5048027;28;20187;-77
2021/06/27 05:23:58;;;;;;;14.80;9.10;;;18.80;88.90;;;;;;5051915;28;20234;-76
2021/06/27 05:26:24;;;;;;;12.83;7.93;;;18.90;87.80;;;;;;5053120;28;20200;-76
2021/06/27 05:28:50;;;;;;;14.60;9.10;;;19.10;86.90;;;;;;5052083;28;20298;-76
2021/06/27 05:31:15;;;;;;;14.90;9.13;;;19.20;86.50;;;;;;5052443;28;20863;-75
2021/06/27 05:33:41;;;;;;;12.53;8.10;;;19.30;86.00;;;;;;5051967;28;20224;-78
2021/06/27 05:36:07;;;;;;;11.93;8.23;;;19.30;85.60;;;;;;5051843;28;20238;-75
2021/06/27 05:38:33;;;;;;;12.23;8.47;;;19.20;85.70;;;;;;5047765;28;20195;-75
2021/06/27 05:40:59;;;;;;;18.23;9.03;;;19.10;86.50;;;;;;5051492;28;20190;-75
2021/06/27 05:43:24;;;;;;;12.70;9.30;;;19.20;86.60;;;;;;5050684;28;20270;-74
2021/06/27 05:45:50;;;;;;;13.53;8.17;;;19.20;86.00;;;;;;5056457;28;20189;-77
2021/06/27 05:48:16;;;;;;;12.30;7.70;;;19.20;86.50;;;;;;5052576;28;20210;-76
2021/06/27 05:50:42;;;;;;;14.20;9.57;;;19.40;86.20;;;;;;5047300;28;20668;-74
2021/06/27 05:53:07;;;;;;;16.10;8.07;;;19.50;85.70;;;;;;5044247;28;20737;-75
2021/06/27 05:55:33;;;;;;;14.27;9.10;;;19.50;84.40;;;;;;5049650;28;20262;-76
2021/06/27 05:57:59;;;;;;;12.27;8.47;;;19.40;84.70;;;;;;5049881;28;20224;-75
2021/06/27 06:00:25;;;;;;;11.53;7.77;;;19.30;84.70;;;;;;5049113;28;20182;-74
2021/06/27 06:02:50;;;;;;;14.40;8.37;;;19.40;85.30;;;;;;5049372;28;20285;-75
2021/06/27 06:05:16;;;;;;;10.93;8.07;;;19.40;85.60;;;;;;5049883;28;20200;-75
2021/06/27 06:07:42;;;;;;;11.40;7.67;;;19.40;85.50;;;;;;5050323;28;20225;-75
2021/06/27 06:10:08;;;;;;;12.00;8.23;;;19.50;85.30;;;;;;5045708;28;20177;-74
2021/06/27 06:12:34;;;;;;;12.10;7.70;;;19.50;84.40;;;;;;5044831;28;20190;-75
2021/06/27 06:15:00;;;;;;;12.30;7.97;;;19.70;84.40;;;;;;5044384;28;20417;-74
2021/06/27 06:17:25;;;;;;;11.63;8.13;;;19.70;84.10;;;;;;5046957;28;20448;-74
2021/06/27 06:19:53;;;;;;;10.93;7.43;;;19.80;84.60;;;;;;5050527;28;20278;-74
2021/06/27 06:22:20;;;;;;;13.17;8.50;;;20.00;83.30;;;;;;5051714;28;20184;-74
2021/06/27 06:24:47;;;;;;;9.60;6.97;;;20.10;82.70;;;;;;5054769;28;20427;-75
2021/06/27 06:27:13;;;;;;;11.03;7.90;;;20.20;82.50;;;;;;5048151;28;20447;-75
2021/06/27 06:29:39;;;;;;;10.37;7.90;;;20.20;82.20;;;;;;5053950;28;20411;-75
2021/06/27 06:32:05;;;;;;;13.33;7.83;;;20.20;82.50;;;;;;5045895;28;20422;-74
2021/06/27 06:34:31;;;;;;;11.63;7.33;;;20.40;81.80;;;;;;5054742;28;20273;-74
2021/06/27 06:36:57;;;;;;;13.63;7.97;;;20.30;81.70;;;;;;5055224;28;20837;-76
2021/06/27 06:39:23;;;;;;;11.00;7.90;;;20.30;81.70;;;;;;5053267;28;20234;-75
2021/06/27 06:41:48;;;;;;;12.40;7.77;;;20.40;81.40;;;;;;5052585;28;20436;-75
2021/06/27 06:44:15;;;;;;;9.17;6.83;;;20.70;81.10;;;;;;5047847;28;20205;-76
2021/06/27 06:46:41;;;;;;;14.10;9.50;;;20.90;79.60;;;;;;5048795;28;20431;-75
2021/06/27 06:49:08;;;;;;;17.20;10.30;;;21.00;79.60;;;;;;5052463;28;20689;-75
2021/06/27 06:51:34;;;;;;;15.47;9.77;;;21.00;81.40;;;;;;5052760;28;20249;-74
2021/06/27 06:53:59;;;;;;;20.87;11.33;;;21.20;81.70;;;;;;5054973;28;20998;-75
2021/06/27 06:56:25;;;;;;;19.60;10.37;;;21.20;81.50;;;;;;5053885;28;20481;-75
2021/06/27 06:58:52;;;;;;;16.37;11.23;;;21.00;82.40;;;;;;5053749;28;20190;-74
2021/06/27 07:01:19;;;;;;;13.00;10.03;;;20.90;82.20;;;;;;5048949;28;20227;-77
2021/06/27 07:03:45;;;;;;;17.83;9.80;;;20.90;83.10;;;;;;5054893;28;20415;-74
2021/06/27 07:06:12;;;;;;;15.37;9.93;;;21.00;83.40;;;;;;5054795;28;20437;-76
2021/06/27 07:08:38;;;;;;;16.87;9.53;;;21.10;82.40;;;;;;5053135;28;21069;-77
2021/06/27 07:11:04;;;;;;;13.43;9.00;;;21.10;82.40;;;;;;5053703;28;20420;-77
2021/06/27 07:13:30;;;;;;;14.73;10.33;;;21.00;82.20;;;;;;5053770;28;20419;-76
2021/06/27 07:15:56;;;;;;;13.30;9.27;;;20.90;82.10;;;;;;5052756;28;20169;-77
2021/06/27 07:18:21;;;;;;;13.90;9.40;;;21.00;82.70;;;;;;5052940;28;20183;-76
2021/06/27 07:20:49;;;;;;;13.57;9.17;;;21.20;82.40;;;;;;5050838;28;20198;-78
2021/06/27 07:23:14;;;;;;;14.17;9.90;;;21.30;81.40;;;;;;5053115;28;20190;-75
2021/06/27 07:25:40;;;;;;;16.10;8.90;;;21.40;80.80;;;;;;5050014;28;20429;-77
2021/06/27 07:28:06;;;;;;;16.23;9.10;;;21.60;80.50;;;;;;5052643;28;20257;-77
2021/06/27 07:30:32;;;;;;;15.13;9.73;;;21.70;79.90;;;;;;5053550;28;20266;-76
2021/06/27 07:32:57;;;;;;;14.40;8.70;;;21.60;80.00;;;;;;5051636;28;20198;-76
2021/06/27 07:35:23;;;;;;;13.67;9.80;;;21.70;79.90;;;;;;5053464;28;20249;-76
2021/06/27 07:37:49;;;;;;;12.27;7.73;;;21.70;79.50;;;;;;5058111;28;20210;-76
2021/06/27 07:40:15;;;;;;;12.80;8.47;;;21.70;79.90;;;;;;5057864;28;20183;-77
2021/06/27 07:42:41;;;;;;;12.13;8.57;;;21.90;78.90;;;;;;5055171;28;20721;-76
2021/06/27 07:45:08;;;;;;;13.60;8.93;;;21.80;79.00;;;;;;5056310;28;20465;-76
2021/06/27 07:47:33;;;;;;;11.87;8.40;;;21.80;79.20;;;;;;5060837;28;20655;-75
2021/06/27 07:49:59;;;;;;;11.50;7.27;;;21.90;79.00;;;;;;5058693;28;20421;-77
2021/06/27 07:52:25;;;;;;;11.40;7.90;;;22.10;79.00;;;;;;5058218;28;20562;-77
2021/06/27 07:54:50;;;;;;;14.93;9.00;;;22.20;78.70;;;;;;5053296;28;20257;-75
2021/06/27 07:57:16;;;;;;;12.10;8.10;;;22.20;78.60;;;;;;5051628;28;20680;-77
2021/06/27 07:59:42;;;;;;;10.40;7.93;;;22.40;78.00;;;;;;5051127;28;20233;-76
2021/06/27 08:02:08;;;;;;;10.50;7.60;;;22.50;78.00;;;;;;5051660;28;20179;-78
2021/06/27 08:04:34;;;;;;;9.20;5.77;;;22.60;76.80;;;;;;5051456;28;20457;-76
2021/06/27 08:07:00;;;;;;;9.43;6.20;;;22.80;75.50;;;;;;5051461;28;20192;-76
2021/06/27 08:09:26;;;;;;;10.53;6.93;;;22.90;73.00;;;;;;5050091;28;20227;-76
2021/06/27 08:11:51;;;;;;;7.27;5.80;;;23.10;72.70;;;;;;5051401;28;20195;-76
2021/06/27 08:14:17;;;;;;;9.13;6.50;;;23.20;72.40;;;;;;5052070;28;20782;-78
2021/06/27 08:16:43;;;;;;;7.50;5.57;;;23.30;71.70;;;;;;5051644;28;20205;-77
2021/06/27 08:19:08;;;;;;;9.97;6.40;;;23.40;72.10;;;;;;5051237;28;20258;-77
2021/06/27 08:21:34;;;;;;;10.33;6.27;;;23.50;71.80;;;;;;5050914;28;20183;-77
2021/06/27 08:24:01;;;;;;;7.30;5.57;;;23.60;72.00;;;;;;5050205;28;20186;-76
2021/06/27 08:26:26;;;;;;;8.13;6.33;;;23.70;71.30;;;;;;5052033;28;20207;-77
2021/06/27 08:28:53;;;;;;;6.60;5.57;;;23.90;69.90;;;;;;5051095;28;20472;-77
2021/06/27 08:31:23;;;;;;;7.33;4.73;;;23.90;68.50;;;;;;5057421;28;20186;-78
2021/06/27 08:33:50;;;;;;;7.00;5.57;;;24.00;68.60;;;;;;5039301;28;20467;-77
2021/06/27 08:36:16;;;;;;;7.87;5.40;;;24.00;68.60;;;;;;5044826;28;20445;-76
2021/06/27 08:38:41;;;;;;;7.33;4.97;;;24.10;67.90;;;;;;5050929;28;20425;-75
2021/06/27 08:41:07;;;;;;;7.17;5.10;;;24.10;66.00;;;;;;5048212;28;20929;-77
2021/06/27 08:43:34;;;;;;;6.40;5.60;;;24.20;66.00;;;;;;5051188;28;20262;-76
2021/06/27 08:46:05;;;;;;;7.33;5.17;;;24.30;65.60;;;;;;5051001;28;20187;-77
2021/06/27 08:48:36;;;;;;;6.97;5.13;;;24.40;65.30;;;;;;5050787;28;20457;-77
2021/06/27 08:51:02;;;;;;;7.10;5.50;;;24.60;66.00;;;;;;5057680;28;20459;-76
2021/06/27 08:53:29;;;;;;;7.97;5.33;;;24.60;65.10;;;;;;5050783;28;20422;-77
2021/06/27 08:56:07;;;;;;;6.23;4.70;;;24.70;63.90;;;;;;5051358;28;20417;-76
2021/06/27 08:58:39;;;;;;;7.57;5.50;;;24.70;62.30;;;;;;5058923;28;20512;-76
2021/06/27 09:01:10;;;;;;;6.20;5.20;;;24.70;61.60;;;;;;5044776;28;20404;-76
2021/06/27 09:03:37;;;;;;;6.33;4.73;;;24.70;62.20;;;;;;5050737;28;20416;-77
2021/06/27 09:06:03;;;;;;;6.43;5.13;;;24.70;61.60;;;;;;5045758;28;20969;-77
2021/06/27 09:08:29;;;;;;;6.73;5.33;;;24.80;61.90;;;;;;5049170;28;20553;-75
2021/06/27 09:10:54;;;;;;;7.07;4.97;;;24.90;60.30;;;;;;5042128;28;20195;-75
2021/06/27 09:13:38;;;;;;;4.77;4.37;;;24.90;60.40;;;;;;5041557;28;20453;-76
2021/06/27 09:16:17;;;;;;;6.60;5.20;;;25.00;59.60;;;;;;5045509;28;20217;-76
2021/06/27 09:18:43;;;;;;;6.03;4.20;;;25.00;60.00;;;;;;5032259;28;20475;-75
2021/06/27 09:21:09;;;;;;;6.33;4.60;;;25.10;60.00;;;;;;5049702;28;20909;-77
2021/06/27 09:23:35;;;;;;;7.00;5.23;;;25.20;60.40;;;;;;5049228;28;20185;-76
2021/06/27 09:26:00;;;;;;;7.53;5.20;;;25.20;60.90;;;;;;5048105;28;20208;-77
2021/06/27 09:28:45;;;;;;;7.27;5.00;;;25.40;60.10;;;;;;5052950;28;20447;-77
2021/06/27 09:31:10;;;;;;;5.63;4.37;;;25.60;58.70;;;;;;5047119;28;20192;-76
2021/06/27 09:33:36;;;;;;;10.20;4.80;;;25.70;58.70;;;;;;5054461;28;20440;-75
2021/06/27 09:36:09;;;;;;;6.53;4.90;;;25.80;58.10;;;;;;5070323;28;20277;-77
2021/06/27 09:38:39;;;;;;;6.60;4.97;;;25.80;57.30;;;;;;5074191;28;20207;-77
2021/06/27 09:41:15;;;;;;;5.67;4.30;;;25.70;56.90;;;;;;5074461;28;20617;-78
2021/06/27 09:43:56;;;;;;;4.87;4.10;;;25.70;57.20;;;;;;5074472;28;20415;-78
2021/06/27 09:46:44;;;;;;;7.23;4.63;;;25.70;57.70;;;;;;5082632;28;20464;-77
2021/06/27 09:49:19;;;;;;;5.80;4.70;;;25.80;58.40;;;;;;5074528;28;20456;-79
2021/06/27 09:51:53;;;;;;;5.97;4.33;;;25.90;57.20;;;;;;5074328;28;20444;-78
2021/06/27 09:54:21;;;;;;;5.77;4.50;;;26.00;56.20;;;;;;5069499;28;20407;-77
2021/06/27 09:56:47;;;;;;;5.40;4.33;;;26.00;56.80;;;;;;5070721;28;20512;-76
2021/06/27 09:59:18;;;;;;;6.43;5.30;;;26.10;57.30;;;;;;5058034;28;20447;-78
2021/06/27 10:01:44;;;;;;;6.47;4.17;;;26.20;56.20;;;;;;5057584;28;20519;-76
2021/06/27 10:04:27;;;;;;;7.60;5.20;;;26.30;56.80;;;;;;5058878;28;20413;-75
2021/06/27 10:06:55;;;;;;;5.97;4.50;;;26.30;56.50;;;;;;5057504;28;20429;-76
2021/06/27 10:09:24;;;;;;;5.30;4.40;;;26.40;55.60;;;;;;5055173;28;20470;-77
2021/06/27 10:12:04;;;;;;;5.30;4.30;;;26.60;55.70;;;;;;5055117;28;20789;-76
2021/06/27 10:14:41;;;;;;;5.43;4.27;;;26.90;55.30;;;;;;5055310;28;21091;-76
2021/06/27 10:17:07;;;;;;;4.93;4.23;;;27.20;54.50;;;;;;5055049;28;21001;-75
2021/06/27 10:19:34;;;;;;;5.63;4.30;;;27.50;52.60;;;;;;5053872;28;20736;-76
2021/06/27 10:22:01;;;;;;;5.10;4.60;;;27.80;52.80;;;;;;5053993;28;20184;-77
2021/06/27 10:24:28;;;;;;;6.20;4.13;;;28.00;53.30;;;;;;5057285;28;20430;-76
2021/06/27 10:26:54;;;;;;;4.50;4.03;;;28.00;50.50;;;;;;5052496;28;20434;-76
2021/06/27 10:29:22;;;;;;;6.90;4.47;;;28.10;49.40;;;;;;5052500;28;20509;-76
2021/06/27 10:31:51;;;;;;;4.57;3.90;;;28.00;49.90;;;;;;5052978;28;20425;-76
2021/06/27 10:34:18;;;;;;;5.83;4.57;;;27.90;49.80;;;;;;5062186;28;20538;-76
2021/06/27 10:36:49;;;;;;;4.27;3.60;;;28.10;50.50;;;;;;5055410;28;20427;-75
2021/06/27 10:39:16;;;;;;;5.00;4.27;;;28.50;47.80;;;;;;5053043;28;20441;-78
2021/06/27 10:41:54;;;;;;;5.10;3.30;;;28.60;46.10;;;;;;5052586;28;20419;-77
2021/06/27 10:44:25;;;;;;;5.20;3.93;;;28.70;45.80;;;;;;5047117;28;20502;-76
2021/06/27 10:46:58;;;;;;;6.93;4.17;;;29.30;46.10;;;;;;5052366;28;20814;-76
2021/06/27 10:49:35;;;;;;;4.47;3.63;;;29.70;44.90;;;;;;5053012;28;20455;-75
2021/06/27 10:52:05;;;;;;;5.87;4.27;;;30.00;45.10;;;;;;5051267;28;20930;-76
2021/06/27 10:54:32;;;;;;;6.30;4.10;;;30.10;44.60;;;;;;5060703;28;20419;-76
2021/06/27 10:57:00;;;;;;;5.20;4.03;;;30.20;44.50;;;;;;5047962;28;20907;-77
2021/06/27 10:59:38;;;;;;;5.00;4.00;;;30.20;45.00;;;;;;5058686;28;20852;-77
2021/06/27 11:02:20;;;;;;;8.27;3.83;;;29.90;45.30;;;;;;5052208;28;20461;-75
2021/06/27 11:04:50;;;;;;;5.40;4.20;;;29.80;45.00;;;;;;5053084;28;20506;-75
2021/06/27 11:07:36;;;;;;;4.83;3.80;;;30.10;44.60;;;;;;5065047;28;20562;-79
2021/06/27 11:10:20;;;;;;;6.07;3.50;;;30.60;44.20;;;;;;5050430;28;21143;-76
2021/06/27 11:13:01;;;;;;;5.63;4.00;;;30.70;43.40;;;;;;5050901;28;20774;-76
2021/06/27 11:15:32;;;;;;;4.10;3.90;;;30.50;43.80;;;;;;5048169;28;20788;-77
2021/06/27 11:18:00;;;;;;;7.47;4.10;;;30.20;44.50;;;;;;5052156;28;20485;-77
2021/06/27 11:20:29;;;;;;;5.50;4.13;;;29.80;44.90;;;;;;5052089;28;20423;-76
2021/06/27 11:22:58;;;;;;;4.43;3.70;;;29.90;45.70;;;;;;5052327;28;20411;-76
2021/06/27 11:25:37;;;;;;;4.70;4.20;;;30.00;45.30;;;;;;5055157;28;20835;-77
2021/06/27 11:28:18;;;;;;;4.13;3.60;;;29.50;46.30;;;;;;5046409;28;20463;-77
2021/06/27 11:30:52;;;;;;;5.50;4.23;;;29.50;47.70;;;;;;5044210;28;20419;-76
2021/06/27 11:33:24;;;;;;;5.20;3.80;;;29.90;45.70;;;;;;5054144;28;20427;-77
2021/06/27 11:35:55;;;;;;;4.97;4.50;;;30.20;45.40;;;;;;5054005;28;20416;-76
2021/06/27 11:38:45;;;;;;;4.87;4.23;;;30.30;45.70;;;;;;5062161;28;20451;-76
2021/06/27 11:41:20;;;;;;;4.80;3.97;;;30.70;43.70;;;;;;5048177;28;20521;-77
2021/06/27 11:43:59;;;;;;;5.40;3.90;;;30.90;42.60;;;;;;5054205;28;20505;-76
2021/06/27 11:46:35;;;;;;;5.60;3.70;;;30.40;43.90;;;;;;5060445;28;20964;-77
2021/06/27 11:49:13;;;;;;;7.07;3.87;;;30.50;43.90;;;;;;5058494;28;20454;-76
2021/06/27 11:51:45;;;;;;;5.50;4.20;;;30.80;41.50;;;;;;5055627;28;20963;-76
2021/06/27 11:54:14;;;;;;;4.40;3.87;;;29.90;43.10;;;;;;5053195;28;20994;-77
2021/06/27 11:56:55;;;;;;;4.13;3.93;;;29.70;43.80;;;;;;5052181;28;20447;-75
2021/06/27 11:59:25;;;;;;;5.03;4.30;;;29.80;44.70;;;;;;5047401;28;20447;-76
2021/06/27 12:02:16;;;;;;;3.57;3.40;;;30.20;44.70;;;;;;5051727;28;20536;-76
2021/06/27 12:04:52;;;;;;;5.70;4.47;;;30.70;42.30;;;;;;5062371;28;20423;-78
2021/06/27 12:07:45;;;;;;;4.37;3.50;;;30.90;42.00;;;;;;5046739;28;20827;-77
2021/06/27 12:10:17;;;;;;;4.47;4.20;;;30.00;42.80;;;;;;5047858;28;20427;-77
2021/06/27 12:12:59;;;;;;;4.30;3.90;;;29.90;42.40;;;;;;5051426;28;20407;-76
2021/06/27 12:15:41;;;;;;;4.60;4.13;;;29.80;43.20;;;;;;5054910;28;20858;-76
2021/06/27 12:18:13;;;;;;;4.97;3.63;;;30.30;43.90;;;;;;5050905;28;20427;-76
2021/06/27 12:20:46;;;;;;;4.53;3.43;;;30.70;43.70;;;;;;5051706;28;20419;-78
2021/06/27 12:23:34;;;;;;;5.27;4.00;;;30.90;41.50;;;;;;5052520;28;20472;-76
2021/06/27 12:26:04;;;;;;;4.87;3.83;;;31.00;41.20;;;;;;5047460;28;20437;-76
2021/06/27 12:28:39;;;;;;;4.70;4.00;;;30.60;40.80;;;;;;5052487;28;20451;-76
2021/06/27 12:31:18;;;;;;;5.13;3.83;;;30.60;40.80;;;;;;5050516;28;20415;-77
2021/06/27 12:33:46;;;;;;;5.17;3.80;;;30.90;39.80;;;;;;5053948;28;20522;-77
2021/06/27 12:36:22;;;;;;;4.87;3.93;;;30.80;40.70;;;;;;5054016;28;20427;-76
2021/06/27 12:38:51;;;;;;;7.80;4.90;;;31.30;39.50;;;;;;5055070;28;20480;-77
2021/06/27 12:41:25;;;;;;;3.40;3.03;;;31.40;39.40;;;;;;5070179;28;20434;-75
2021/06/27 12:44:03;;;;;;;6.23;3.60;;;31.10;39.80;;;;;;5069480;28;20455;-77